createdAt,value
2023-09-09T00:00:09.498Z,19.79
2023-09-09T00:02:38.063Z,19.66
2023-09-09T00:05:07.773Z,19.60
2023-09-09T00:07:36.644Z,19.65
2023-09-09T00:10:05.770Z,19.74
2023-09-09T00:12:34.459Z,19.62
2023-09-09T00:15:09.555Z,19.44
2023-09-09T00:17:38.097Z,19.53
2023-09-09T00:20:16.878Z,19.44
2023-09-09T00:22:45.507Z,19.50
2023-09-09T00:25:14.108Z,19.50
2023-09-09T00:27:42.753Z,19.49
2023-09-09T00:30:11.621Z,19.19
2023-09-09T00:32:40.074Z,18.96
2023-09-09T00:35:09.070Z,18.96
2023-09-09T00:37:37.648Z,18.89
2023-09-09T00:40:07.392Z,18.86
2023-09-09T00:42:36.029Z,19.01
2023-09-09T00:45:04.533Z,18.77
2023-09-09T00:47:34.119Z,18.89
2023-09-09T00:50:03.336Z,18.91
2023-09-09T00:52:32.095Z,18.86
2023-09-09T00:55:01.572Z,18.77
2023-09-09T00:57:30.326Z,18.70
2023-09-09T00:59:58.987Z,18.74
2023-09-09T01:02:27.722Z,18.71
2023-09-09T01:04:56.913Z,18.61
2023-09-09T01:07:25.621Z,18.71
2023-09-09T01:09:54.688Z,18.51
2023-09-09T01:12:27.051Z,18.51
2023-09-09T01:14:55.723Z,18.28
2023-09-09T01:17:24.690Z,17.96
2023-09-09T01:19:55.597Z,17.89
2023-09-09T01:22:24.111Z,17.83
2023-09-09T01:24:52.660Z,17.44
2023-09-09T01:27:21.078Z,17.20
2023-09-09T01:29:49.682Z,17.22
2023-09-09T01:32:18.784Z,17.21
2023-09-09T01:34:47.357Z,16.98
2023-09-09T01:37:15.834Z,16.76
2023-09-09T01:39:44.393Z,16.79
2023-09-09T01:42:13.499Z,17.04
2023-09-09T01:44:42.076Z,17.14
2023-09-09T01:47:11.874Z,16.81
2023-09-09T01:49:40.401Z,16.71
2023-09-09T01:52:08.989Z,16.65
2023-09-09T01:54:37.885Z,16.43
2023-09-09T01:57:06.794Z,16.26
2023-09-09T01:59:35.625Z,15.98
2023-09-09T02:02:05.046Z,15.90
2023-09-09T02:04:33.654Z,15.86
2023-09-09T02:07:02.580Z,15.75
2023-09-09T02:09:30.958Z,15.73
2023-09-09T02:11:59.748Z,15.60
2023-09-09T02:14:28.328Z,15.55
2023-09-09T02:16:58.033Z,15.70
2023-09-09T02:19:27.210Z,16.11
2023-09-09T02:21:56.484Z,16.32
2023-09-09T02:24:25.332Z,15.95
2023-09-09T02:26:54.191Z,15.68
2023-09-09T02:29:22.901Z,15.47
2023-09-09T02:31:51.439Z,15.61
2023-09-09T02:34:20.096Z,15.34
2023-09-09T02:37:19.260Z,15.11
2023-09-09T02:39:49.701Z,14.95
2023-09-09T02:42:21.028Z,14.96
2023-09-09T02:44:54.303Z,14.90
2023-09-09T02:47:22.565Z,14.87
2023-09-09T02:49:53.813Z,14.82
2023-09-09T02:52:24.398Z,14.72
2023-09-09T02:54:53.025Z,14.58
2023-09-09T02:57:21.575Z,14.40
2023-09-09T02:59:50.407Z,14.28
2023-09-09T03:02:19.077Z,14.43
2023-09-09T03:04:48.802Z,14.96
2023-09-09T03:07:17.466Z,15.20
2023-09-09T03:09:47.770Z,14.81
2023-09-09T03:12:19.436Z,15.02
2023-09-09T03:14:49.739Z,14.96
2023-09-09T03:17:22.820Z,14.94
2023-09-09T03:19:51.289Z,14.80
2023-09-09T03:22:19.980Z,14.88
2023-09-09T03:24:48.602Z,14.76
2023-09-09T03:27:17.248Z,14.90
2023-09-09T03:29:45.803Z,14.76
2023-09-09T03:32:14.273Z,14.80
2023-09-09T03:34:43.374Z,15.03
2023-09-09T03:37:12.090Z,15.09
2023-09-09T03:39:40.848Z,15.08
2023-09-09T03:42:09.358Z,15.14
2023-09-09T03:44:37.888Z,15.13
2023-09-09T03:47:06.748Z,15.08
2023-09-09T03:49:35.374Z,14.99
2023-09-09T03:52:05.422Z,14.89
2023-09-09T03:54:33.991Z,14.19
2023-09-09T03:57:02.613Z,14.07
2023-09-09T03:59:33.858Z,14.35
2023-09-09T04:02:02.235Z,14.35
2023-09-09T04:04:30.962Z,14.39
2023-09-09T04:06:59.968Z,14.15
2023-09-09T04:09:29.374Z,14.19
2023-09-09T04:11:57.982Z,13.92
2023-09-09T04:14:26.393Z,13.42
2023-09-09T04:16:55.007Z,13.38
2023-09-09T04:19:23.666Z,13.14
2023-09-09T04:21:53.890Z,13.10
2023-09-09T04:24:22.415Z,12.96
2023-09-09T04:26:51.570Z,12.98
2023-09-09T04:29:20.112Z,12.96
2023-09-09T04:31:50.669Z,12.66
2023-09-09T04:34:19.358Z,12.75
2023-09-09T04:36:47.883Z,12.82
2023-09-09T04:39:16.350Z,12.65
2023-09-09T04:41:45.705Z,12.69
2023-09-09T04:44:14.176Z,12.72
2023-09-09T04:46:42.268Z,12.49
2023-09-09T04:49:11.019Z,12.47
2023-09-09T04:51:39.582Z,12.41
2023-09-09T04:54:08.271Z,12.34
2023-09-09T04:56:36.991Z,12.44
2023-09-09T04:59:05.672Z,12.77
2023-09-09T05:01:34.234Z,13.02
2023-09-09T05:04:03.068Z,13.21
2023-09-09T05:06:31.911Z,13.37
2023-09-09T05:09:00.548Z,13.43
2023-09-09T05:11:29.044Z,13.33
2023-09-09T05:13:57.722Z,13.30
2023-09-09T05:16:26.416Z,13.12
2023-09-09T05:18:55.043Z,13.30
2023-09-09T05:21:23.636Z,13.37
2023-09-09T05:23:52.760Z,13.53
2023-09-09T05:26:21.700Z,13.53
2023-09-09T05:28:50.335Z,13.71
2023-09-09T05:31:18.941Z,13.76
2023-09-09T05:33:47.602Z,13.84
2023-09-09T05:36:16.314Z,13.88
2023-09-09T05:38:44.854Z,13.78
2023-09-09T05:41:13.451Z,13.84
2023-09-09T05:43:42.046Z,13.60
2023-09-09T05:46:10.621Z,13.72
2023-09-09T05:48:39.532Z,13.63
2023-09-09T05:51:08.242Z,13.40
2023-09-09T05:53:37.356Z,13.42
2023-09-09T05:56:06.535Z,13.52
2023-09-09T05:58:36.182Z,13.51
2023-09-09T06:01:05.433Z,13.50
2023-09-09T06:03:34.997Z,13.54
2023-09-09T06:06:03.940Z,13.34
2023-09-09T06:08:33.485Z,13.29
2023-09-09T06:11:02.201Z,13.23
2023-09-09T06:13:30.819Z,13.23
2023-09-09T06:16:00.278Z,13.15
2023-09-09T06:18:28.871Z,13.12
2023-09-09T06:20:57.429Z,12.85
2023-09-09T06:23:25.947Z,12.70
2023-09-09T06:25:54.467Z,12.63
2023-09-09T06:28:24.048Z,12.66
2023-09-09T06:30:52.776Z,12.71
2023-09-09T06:33:21.571Z,12.72
2023-09-09T06:35:51.591Z,12.78
2023-09-09T06:38:20.675Z,12.91
2023-09-09T06:40:50.791Z,12.95
2023-09-09T06:43:21.924Z,12.94
2023-09-09T06:45:51.453Z,12.55
2023-09-09T06:48:20.709Z,12.36
2023-09-09T06:50:49.945Z,12.20
2023-09-09T06:53:18.905Z,11.96
2023-09-09T06:55:47.855Z,11.94
2023-09-09T06:58:17.114Z,11.96
2023-09-09T07:00:52.866Z,11.84
2023-09-09T07:03:23.153Z,11.85
2023-09-09T07:05:52.252Z,12.13
2023-09-09T07:08:21.172Z,12.27
2023-09-09T07:10:53.671Z,12.37
2023-09-09T07:13:26.611Z,12.68
2023-09-09T07:15:55.709Z,12.76
2023-09-09T07:18:25.370Z,12.83
2023-09-09T07:20:54.135Z,12.83
2023-09-09T07:23:22.752Z,12.85
2023-09-09T07:25:51.706Z,12.83
2023-09-09T07:28:20.536Z,12.71
2023-09-09T07:30:49.149Z,12.43
2023-09-09T07:33:17.701Z,12.54
2023-09-09T07:35:46.518Z,12.22
2023-09-09T07:38:15.154Z,11.91
2023-09-09T07:40:43.846Z,11.76
2023-09-09T07:43:12.571Z,11.43
2023-09-09T07:45:47.972Z,11.20
2023-09-09T07:48:16.557Z,10.89
2023-09-09T07:50:53.562Z,10.73
2023-09-09T07:53:23.400Z,10.61
2023-09-09T07:55:52.671Z,10.79
2023-09-09T07:58:21.552Z,11.04
2023-09-09T08:00:50.094Z,11.38
2023-09-09T08:03:18.806Z,11.36
2023-09-09T08:05:47.806Z,11.46
2023-09-09T08:08:16.637Z,11.20
2023-09-09T08:10:46.678Z,10.90
2023-09-09T08:13:15.077Z,10.69
2023-09-09T08:15:44.060Z,10.51
2023-09-09T08:18:14.429Z,10.42
2023-09-09T08:20:43.984Z,10.32
2023-09-09T08:23:12.586Z,10.01
2023-09-09T08:25:41.083Z,9.71
2023-09-09T08:28:09.641Z,9.75
2023-09-09T08:30:38.571Z,9.50
2023-09-09T08:33:07.269Z,9.73
2023-09-09T08:35:35.914Z,9.59
2023-09-09T08:38:04.599Z,9.42
2023-09-09T08:40:38.117Z,9.34
2023-09-09T08:43:54.050Z,9.37
2023-09-09T08:46:24.488Z,9.19
2023-09-09T08:48:53.954Z,9.05
2023-09-09T08:51:31.007Z,9.08
2023-09-09T08:54:00.308Z,9.05
2023-09-09T08:56:29.288Z,9.07
2023-09-09T08:58:59.183Z,8.98
2023-09-09T09:01:29.940Z,8.90
2023-09-09T09:04:00.123Z,8.70
2023-09-09T09:06:30.480Z,8.69
2023-09-09T09:08:59.241Z,8.68
2023-09-09T09:11:28.281Z,8.73
2023-09-09T09:13:58.191Z,8.72
2023-09-09T09:16:26.671Z,8.58
2023-09-09T09:18:56.446Z,8.49
2023-09-09T09:21:25.019Z,8.53
2023-09-09T09:23:53.565Z,8.64
2023-09-09T09:26:30.103Z,8.65
2023-09-09T09:28:59.237Z,8.55
2023-09-09T09:31:30.081Z,8.35
2023-09-09T09:34:00.851Z,8.25
2023-09-09T09:36:30.012Z,8.16
2023-09-09T09:39:01.332Z,8.11
2023-09-09T09:41:31.106Z,8.04
2023-09-09T09:43:59.735Z,7.89
2023-09-09T09:46:28.168Z,7.81
2023-09-09T09:48:56.692Z,7.83
2023-09-09T09:51:25.070Z,7.75
2023-09-09T09:53:56.226Z,7.70
2023-09-09T09:56:24.875Z,7.73
2023-09-09T09:58:54.725Z,7.80
2023-09-09T10:01:24.207Z,7.99
2023-09-09T10:04:02.717Z,8.01
2023-09-09T10:06:34.417Z,8.05
2023-09-09T10:09:26.649Z,7.97
2023-09-09T10:12:13.004Z,7.88
2023-09-09T10:14:42.330Z,7.83
2023-09-09T10:17:12.717Z,7.75
2023-09-09T10:19:42.459Z,7.70
2023-09-09T10:22:12.784Z,7.66
2023-09-09T10:24:42.765Z,7.75
2023-09-09T10:27:12.186Z,7.70
2023-09-09T10:29:43.860Z,7.64
2023-09-09T10:32:14.730Z,7.55
2023-09-09T10:34:44.537Z,7.50
2023-09-09T10:37:15.542Z,7.45
2023-09-09T10:39:44.205Z,7.40
2023-09-09T10:42:13.341Z,7.41
2023-09-09T10:44:41.925Z,7.36
2023-09-09T10:47:11.992Z,7.42
2023-09-09T10:49:41.974Z,7.33
2023-09-09T10:52:30.607Z,7.24
2023-09-09T10:55:16.103Z,7.07
2023-09-09T10:57:44.940Z,7.07
2023-09-09T11:00:41.639Z,6.99
2023-09-09T11:03:16.271Z,6.90
2023-09-09T11:06:01.129Z,6.80
2023-09-09T11:08:45.927Z,6.76
2023-09-09T11:11:18.516Z,6.68
2023-09-09T11:14:01.840Z,6.60
2023-09-09T11:16:40.657Z,6.67
2023-09-09T11:19:14.219Z,6.64
2023-09-09T11:21:46.121Z,6.68
2023-09-09T11:24:15.400Z,6.66
2023-09-09T11:26:47.461Z,6.68
2023-09-09T11:29:30.191Z,6.62
2023-09-09T11:32:05.271Z,6.57
2023-09-09T11:34:35.436Z,6.47
2023-09-09T11:37:07.022Z,6.56
2023-09-09T11:39:42.849Z,6.60
2023-09-09T11:42:11.506Z,6.64
2023-09-09T11:44:43.830Z,6.73
2023-09-09T11:47:13.026Z,6.68
2023-09-09T11:49:42.076Z,6.62
2023-09-09T11:52:10.835Z,6.60
2023-09-09T11:54:40.132Z,6.61
2023-09-09T11:57:10.168Z,6.58
2023-09-09T11:59:54.576Z,6.62
2023-09-09T12:02:27.898Z,6.55
2023-09-09T12:05:00.896Z,6.43
2023-09-09T12:07:38.753Z,6.43
2023-09-09T12:10:15.262Z,6.42
2023-09-09T12:12:45.018Z,6.46
2023-09-09T12:15:15.639Z,6.35
2023-09-09T12:17:44.267Z,6.41
2023-09-09T12:20:13.087Z,6.40
2023-09-09T12:22:54.020Z,6.31
2023-09-09T12:25:38.689Z,6.28
2023-09-09T12:28:17.918Z,6.33
2023-09-09T12:30:46.576Z,6.36
2023-09-09T12:33:22.285Z,6.20
2023-09-09T12:35:53.030Z,6.16
2023-09-09T12:38:22.836Z,6.16
2023-09-09T12:40:51.445Z,6.19
2023-09-09T12:43:24.481Z,6.20
2023-09-09T12:45:55.351Z,6.11
2023-09-09T12:48:24.691Z,6.17
2023-09-09T12:50:53.287Z,6.15
2023-09-09T12:53:21.973Z,6.07
2023-09-09T12:55:50.810Z,6.28
2023-09-09T12:58:19.409Z,6.32
2023-09-09T13:00:47.809Z,6.35
2023-09-09T13:03:16.532Z,6.37
2023-09-09T13:05:45.812Z,6.25
2023-09-09T13:08:14.975Z,5.87
2023-09-09T13:10:45.146Z,5.77
2023-09-09T13:13:13.834Z,5.56
2023-09-09T13:15:42.532Z,5.48
2023-09-09T13:18:11.211Z,5.49
2023-09-09T13:20:39.950Z,5.51
2023-09-09T13:23:08.771Z,5.49
2023-09-09T13:25:37.332Z,5.53
2023-09-09T13:28:07.427Z,5.55
2023-09-09T13:30:37.125Z,5.58
2023-09-09T13:33:06.224Z,5.74
2023-09-09T13:35:34.944Z,5.74
2023-09-09T13:38:03.662Z,5.81
2023-09-09T13:40:32.311Z,5.83
2023-09-09T13:43:00.978Z,5.78
2023-09-09T13:45:29.628Z,5.76
2023-09-09T13:47:58.276Z,5.76
2023-09-09T13:50:27.021Z,5.72
2023-09-09T13:52:55.513Z,5.71
2023-09-09T13:55:24.189Z,5.77
2023-09-09T13:57:52.715Z,5.87
2023-09-09T14:00:21.313Z,5.94
2023-09-09T14:02:50.061Z,6.03
2023-09-09T14:05:19.121Z,6.11
2023-09-09T14:07:47.671Z,6.20
2023-09-09T14:10:16.317Z,6.27
2023-09-09T14:12:45.493Z,6.37
2023-09-09T14:15:14.544Z,6.45
2023-09-09T14:17:43.359Z,6.55
2023-09-09T14:20:12.525Z,6.62
2023-09-09T14:22:41.184Z,6.72
2023-09-09T14:25:10.387Z,6.82
2023-09-09T14:27:38.908Z,6.91
2023-09-09T14:30:08.176Z,7.04
2023-09-09T14:32:36.732Z,7.20
2023-09-09T14:35:05.763Z,7.33
2023-09-09T14:37:34.487Z,7.50
2023-09-09T14:40:04.424Z,7.60
2023-09-09T14:42:33.138Z,7.70
2023-09-09T14:45:01.540Z,7.84
2023-09-09T14:47:30.255Z,7.97
2023-09-09T14:49:58.893Z,8.11
2023-09-09T14:52:30.049Z,8.26
2023-09-09T14:54:58.642Z,8.33
2023-09-09T14:57:27.263Z,8.50
2023-09-09T14:59:55.819Z,8.63
2023-09-09T15:02:24.447Z,8.73
2023-09-09T15:04:53.141Z,8.87
2023-09-09T15:07:22.050Z,9.02
2023-09-09T15:09:50.903Z,9.21
2023-09-09T15:12:19.472Z,9.33
2023-09-09T15:14:47.332Z,9.51
2023-09-09T15:17:15.848Z,9.75
2023-09-09T15:19:44.581Z,9.76
2023-09-09T15:22:14.053Z,9.90
2023-09-09T15:24:42.627Z,10.05
2023-09-09T15:27:11.304Z,10.24
2023-09-09T15:29:39.968Z,10.34
2023-09-09T15:32:09.520Z,10.50
2023-09-09T15:34:38.224Z,10.66
2023-09-09T15:37:07.392Z,10.97
2023-09-09T15:39:36.119Z,11.07
2023-09-09T15:42:06.723Z,11.20
2023-09-09T15:44:35.203Z,11.36
2023-09-09T15:47:03.949Z,11.53
2023-09-09T15:49:32.881Z,11.58
2023-09-09T15:52:01.383Z,11.83
2023-09-09T15:54:29.879Z,12.02
2023-09-09T15:56:58.501Z,12.08
2023-09-09T15:59:26.867Z,12.24
2023-09-09T16:01:55.932Z,12.33
2023-09-09T16:04:24.774Z,12.44
2023-09-09T16:06:53.848Z,12.83
2023-09-09T16:09:22.647Z,13.06
2023-09-09T16:11:52.389Z,13.29
2023-09-09T16:14:20.895Z,13.58
2023-09-09T16:16:49.265Z,13.87
2023-09-09T16:19:19.560Z,14.13
2023-09-09T16:21:48.374Z,14.42
2023-09-09T16:24:17.240Z,14.65
2023-09-09T16:26:45.988Z,14.70
2023-09-09T16:29:14.589Z,14.65
2023-09-09T16:31:43.079Z,15.13
2023-09-09T16:34:11.939Z,15.32
2023-09-09T16:36:40.608Z,15.40
2023-09-09T16:39:09.109Z,15.67
2023-09-09T16:41:37.761Z,16.00
2023-09-09T16:44:08.987Z,16.25
2023-09-09T16:46:37.770Z,16.37
2023-09-09T16:49:06.371Z,16.43
2023-09-09T16:51:35.055Z,16.67
2023-09-09T16:54:03.708Z,17.01
2023-09-09T16:56:32.242Z,17.36
2023-09-09T16:59:00.638Z,17.17
2023-09-09T17:01:29.946Z,17.31
2023-09-09T17:03:58.454Z,17.86
2023-09-09T17:06:27.517Z,17.99
2023-09-09T17:08:56.192Z,18.23
2023-09-09T17:11:24.696Z,18.39
2023-09-09T17:13:54.719Z,18.79
2023-09-09T17:16:25.934Z,18.78
2023-09-09T17:18:54.632Z,19.13
2023-09-09T17:21:23.161Z,18.49
2023-09-09T17:23:51.708Z,18.91
2023-09-09T17:26:20.109Z,19.50
2023-09-09T17:28:48.945Z,19.71
2023-09-09T17:31:17.762Z,19.99
2023-09-09T17:33:46.671Z,20.11
2023-09-09T17:36:15.223Z,19.14
2023-09-09T17:38:43.694Z,19.78
2023-09-09T17:41:12.269Z,19.07
2023-09-09T17:43:41.031Z,19.60
2023-09-09T17:46:09.841Z,18.96
2023-09-09T17:48:39.053Z,19.73
2023-09-09T17:51:07.950Z,19.89
2023-09-09T17:53:36.734Z,20.36
2023-09-09T17:56:05.666Z,20.08
2023-09-09T17:58:34.572Z,20.81
2023-09-09T18:01:03.221Z,20.45
2023-09-09T18:03:31.996Z,20.78
2023-09-09T18:06:03.511Z,20.74
2023-09-09T18:08:32.949Z,21.15
2023-09-09T18:11:02.113Z,21.24
2023-09-09T18:13:30.809Z,21.13
2023-09-09T18:15:59.246Z,21.69
2023-09-09T18:18:27.906Z,21.71
2023-09-09T18:20:56.530Z,21.95
2023-09-09T18:23:24.925Z,22.02
2023-09-09T18:26:02.896Z,21.84
2023-09-09T18:28:31.748Z,21.95
2023-09-09T18:31:04.176Z,22.04
2023-09-09T18:33:32.873Z,22.29
2023-09-09T18:36:01.510Z,22.42
2023-09-09T18:38:30.737Z,22.60
2023-09-09T18:41:00.656Z,21.59
2023-09-09T18:43:31.161Z,21.84
2023-09-09T18:46:00.798Z,21.02
2023-09-09T18:48:29.445Z,21.54
2023-09-09T18:50:57.941Z,20.49
2023-09-09T18:53:27.141Z,21.09
2023-09-09T18:55:55.741Z,21.90
2023-09-09T18:58:24.650Z,22.04
2023-09-09T19:00:55.924Z,22.30
2023-09-09T19:03:25.234Z,22.28
2023-09-09T19:05:56.594Z,22.16
2023-09-09T19:08:25.781Z,21.96
2023-09-09T19:10:56.104Z,22.47
2023-09-09T19:13:27.618Z,22.66
2023-09-09T19:15:56.428Z,21.72
2023-09-09T19:18:25.182Z,22.24
2023-09-09T19:20:53.887Z,21.48
2023-09-09T19:23:22.497Z,21.86
2023-09-09T19:25:56.771Z,21.46
2023-09-09T19:28:25.363Z,21.39
2023-09-09T19:30:53.752Z,21.11
2023-09-09T19:33:22.377Z,22.05
2023-09-09T19:35:50.935Z,22.24
2023-09-09T19:38:23.628Z,21.96
2023-09-09T19:40:52.231Z,22.16
2023-09-09T19:43:20.780Z,22.17
2023-09-09T19:45:50.458Z,21.83
2023-09-09T19:48:18.910Z,21.48
2023-09-09T19:50:47.463Z,21.23
2023-09-09T19:53:20.298Z,21.20
2023-09-09T19:55:49.438Z,21.84
2023-09-09T19:58:18.033Z,21.89
2023-09-09T20:00:47.691Z,21.93
2023-09-09T20:03:16.331Z,21.97
2023-09-09T20:05:51.037Z,21.85
2023-09-09T20:08:20.219Z,21.76
2023-09-09T20:10:51.520Z,21.82
2023-09-09T20:13:24.605Z,21.85
2023-09-09T20:15:57.743Z,21.75
2023-09-09T20:18:26.918Z,21.50
2023-09-09T20:20:56.126Z,21.24
2023-09-09T20:23:24.768Z,21.30
2023-09-09T20:25:53.466Z,20.76
2023-09-09T20:28:22.333Z,21.32
2023-09-09T20:30:51.025Z,21.53
2023-09-09T20:33:22.229Z,21.64
2023-09-09T20:35:52.729Z,21.66
2023-09-09T20:38:21.628Z,21.33
2023-09-09T20:40:50.640Z,20.99
2023-09-09T20:43:20.456Z,21.31
2023-09-09T20:45:48.946Z,21.24
2023-09-09T20:48:17.787Z,21.26
2023-09-09T20:50:46.355Z,21.25
2023-09-09T20:53:14.876Z,21.22
2023-09-09T20:55:43.906Z,21.54
2023-09-09T20:58:14.505Z,21.64
2023-09-09T21:00:43.107Z,21.09
2023-09-09T21:03:11.700Z,20.94
2023-09-09T21:05:40.743Z,20.81
2023-09-09T21:08:09.430Z,21.11
2023-09-09T21:10:38.094Z,21.48
2023-09-09T21:13:06.716Z,21.55
2023-09-09T21:15:35.118Z,21.36
2023-09-09T21:18:03.608Z,21.21
2023-09-09T21:20:32.429Z,21.40
2023-09-09T21:23:00.934Z,21.54
2023-09-09T21:25:31.332Z,21.62
2023-09-09T21:28:01.927Z,21.47
2023-09-09T21:30:31.670Z,21.44
2023-09-09T21:33:00.903Z,21.31
2023-09-09T21:35:29.741Z,21.32
2023-09-09T21:37:58.418Z,21.42
2023-09-09T21:40:27.123Z,21.23
2023-09-09T21:42:55.772Z,21.40
2023-09-09T21:45:24.666Z,21.24
2023-09-09T21:47:53.622Z,21.37
2023-09-09T21:50:22.430Z,21.38
2023-09-09T21:52:50.932Z,21.47
2023-09-09T21:55:19.674Z,21.66
2023-09-09T21:57:48.255Z,21.60
2023-09-09T22:00:25.661Z,21.45
2023-09-09T22:02:54.888Z,21.54
2023-09-09T22:05:23.706Z,21.12
2023-09-09T22:07:52.444Z,21.21
2023-09-09T22:10:21.169Z,21.25
2023-09-09T22:12:50.898Z,21.32
2023-09-09T22:15:19.484Z,21.36
2023-09-09T22:17:48.196Z,21.31
2023-09-09T22:20:18.190Z,21.32
2023-09-09T22:22:46.932Z,21.33
2023-09-09T22:25:16.487Z,21.44
2023-09-09T22:27:44.980Z,21.41
2023-09-09T22:30:14.499Z,21.45
2023-09-09T22:32:43.152Z,21.58
2023-09-09T22:35:11.800Z,21.45
2023-09-09T22:37:41.745Z,21.46
2023-09-09T22:40:11.895Z,21.41
2023-09-09T22:42:40.409Z,21.38
2023-09-09T22:45:09.135Z,21.44
2023-09-09T22:47:37.839Z,21.31
2023-09-09T22:50:07.288Z,21.53
2023-09-09T22:52:36.190Z,21.38
2023-09-09T22:55:08.916Z,21.38
2023-09-09T22:57:37.563Z,21.36
2023-09-09T23:00:08.377Z,21.28
2023-09-09T23:02:37.181Z,21.28
2023-09-09T23:05:06.725Z,21.23
2023-09-09T23:07:50.214Z,21.23
2023-09-09T23:10:20.589Z,21.25
2023-09-09T23:12:49.085Z,21.07
2023-09-09T23:15:17.071Z,21.10
2023-09-09T23:17:45.412Z,21.14
2023-09-09T23:20:13.618Z,21.20
2023-09-09T23:22:46.143Z,20.99
2023-09-09T23:25:16.093Z,21.02
2023-09-09T23:27:44.339Z,21.04
2023-09-09T23:30:13.495Z,21.15
2023-09-09T23:32:42.252Z,21.14
2023-09-09T23:35:11.287Z,21.11
2023-09-09T23:37:39.919Z,20.98
2023-09-09T23:40:10.993Z,20.96
2023-09-09T23:42:39.694Z,21.11
2023-09-09T23:45:09.016Z,21.07
2023-09-09T23:47:37.771Z,21.06
2023-09-09T23:50:06.949Z,21.09
2023-09-09T23:52:35.759Z,21.06
2023-09-09T23:55:04.709Z,21.09
2023-09-09T23:57:33.388Z,21.07
